createdAt,value
2022-08-03T00:02:55.057Z,77.09
2022-08-03T00:07:49.602Z,78.00
2022-08-03T00:12:42.987Z,79.44
2022-08-03T00:17:52.698Z,79.69
2022-08-03T00:22:48.674Z,80.46
2022-08-03T00:27:41.977Z,80.58
2022-08-03T00:32:35.300Z,79.95
2022-08-03T00:37:40.633Z,79.44
2022-08-03T00:42:36.420Z,83.00
2022-08-03T00:47:29.707Z,84.01
2022-08-03T00:52:23.133Z,82.38
2022-08-03T00:57:16.627Z,81.41
2022-08-03T01:02:11.370Z,80.83
2022-08-03T01:07:18.475Z,82.46
2022-08-03T01:12:23.852Z,83.82
2022-08-03T01:17:26.627Z,84.15
2022-08-03T01:22:47.481Z,84.07
2022-08-03T01:27:57.599Z,84.89
2022-08-03T01:33:02.082Z,85.05
2022-08-03T01:38:04.531Z,84.91
2022-08-03T01:43:01.562Z,86.08
2022-08-03T01:47:58.112Z,86.76
2022-08-03T01:52:54.223Z,88.37
2022-08-03T01:58:05.336Z,86.85
2022-08-03T02:03:02.892Z,89.64
2022-08-03T02:07:57.895Z,88.09
2022-08-03T02:12:52.682Z,87.46
2022-08-03T02:17:48.898Z,87.47
2022-08-03T02:22:45.499Z,87.00
2022-08-03T02:27:44.063Z,88.27
2022-08-03T02:32:42.487Z,89.32
2022-08-03T02:37:45.005Z,89.44
2022-08-03T02:42:46.541Z,89.00
2022-08-03T02:47:54.241Z,88.69
2022-08-03T02:52:52.284Z,88.10
2022-08-03T02:57:48.562Z,87.70
2022-08-03T03:02:44.455Z,88.46
2022-08-03T03:07:51.899Z,90.07
2022-08-03T03:12:48.711Z,90.22
2022-08-03T03:17:45.410Z,89.43
2022-08-03T03:22:41.329Z,89.20
2022-08-03T03:27:39.254Z,90.23
2022-08-03T03:32:34.338Z,90.99
2022-08-03T03:37:28.305Z,91.33
2022-08-03T03:42:22.094Z,91.55
2022-08-03T03:47:15.638Z,93.03
2022-08-03T03:52:12.267Z,92.30
2022-08-03T03:57:05.639Z,91.62
2022-08-03T04:01:59.940Z,91.72
2022-08-03T04:07:10.800Z,91.19
2022-08-03T04:12:07.595Z,91.49
2022-08-03T04:17:06.844Z,91.15
2022-08-03T04:22:06.950Z,90.91
2022-08-03T04:27:03.806Z,90.38
2022-08-03T04:32:03.082Z,91.02
2022-08-03T04:37:03.002Z,91.01
2022-08-03T04:42:07.511Z,91.01
2022-08-03T04:47:03.814Z,90.92
2022-08-03T04:51:57.724Z,90.96
2022-08-03T04:56:51.049Z,91.14
2022-08-03T05:01:44.909Z,90.07
2022-08-03T05:06:47.900Z,89.98
2022-08-03T05:11:41.825Z,90.08
2022-08-03T05:16:35.186Z,89.38
2022-08-03T05:21:52.040Z,89.96
2022-08-03T05:26:43.119Z,90.03
2022-08-03T05:31:36.420Z,90.93
2022-08-03T05:36:29.777Z,91.84
2022-08-03T05:41:36.560Z,92.51
2022-08-03T05:46:32.211Z,92.10
2022-08-03T05:51:25.587Z,92.90
2022-08-03T05:56:18.919Z,92.42
2022-08-03T06:01:12.359Z,91.08
2022-08-03T06:06:07.427Z,88.63
2022-08-03T06:11:01.076Z,90.11
2022-08-03T06:15:54.540Z,91.80
2022-08-03T06:20:49.356Z,91.18
2022-08-03T06:25:44.610Z,91.95
2022-08-03T06:30:38.054Z,89.15
2022-08-03T06:35:31.413Z,89.15
2022-08-03T06:40:29.722Z,89.58
2022-08-03T06:45:24.430Z,87.71
2022-08-03T06:50:24.277Z,90.32
2022-08-03T06:55:19.708Z,89.23
2022-08-03T07:00:14.793Z,88.45
2022-08-03T07:05:11.370Z,89.80
2022-08-03T07:10:06.088Z,89.03
2022-08-03T07:15:03.173Z,85.58
2022-08-03T07:19:56.998Z,88.06
2022-08-03T07:24:51.750Z,85.38
2022-08-03T07:29:45.068Z,81.94
2022-08-03T07:34:38.528Z,81.23
2022-08-03T07:39:31.975Z,80.51
2022-08-03T07:44:26.727Z,77.50
2022-08-03T07:49:20.724Z,74.06
2022-08-03T07:54:14.613Z,72.80
2022-08-03T07:59:08.375Z,68.55
2022-08-03T08:04:03.139Z,67.86
2022-08-03T08:08:59.639Z,67.98
2022-08-03T08:13:54.352Z,67.12
2022-08-03T08:18:47.745Z,66.72
2022-08-03T08:23:46.206Z,65.44
2022-08-03T08:28:48.340Z,65.50
2022-08-03T08:34:03.236Z,62.61
2022-08-03T08:38:56.507Z,62.28
2022-08-03T08:43:49.856Z,62.21
2022-08-03T08:48:45.685Z,60.82
2022-08-03T08:53:45.064Z,60.32
2022-08-03T08:58:52.135Z,58.37
2022-08-03T09:03:45.967Z,58.46
2022-08-03T09:08:39.372Z,57.45
2022-08-03T09:13:34.512Z,57.59
2022-08-03T09:18:32.500Z,57.70
2022-08-03T09:23:51.703Z,56.82
2022-08-03T09:28:58.082Z,55.68
2022-08-03T09:33:59.859Z,56.03
2022-08-03T09:39:05.896Z,55.45
2022-08-03T09:43:59.256Z,54.42
2022-08-03T09:48:53.992Z,53.88
2022-08-03T09:53:58.832Z,53.90
2022-08-03T09:58:53.225Z,53.67
2022-08-03T10:04:04.130Z,50.89
2022-08-03T10:09:08.699Z,52.26
2022-08-03T10:14:04.701Z,51.25
2022-08-03T10:18:58.131Z,50.95
2022-08-03T10:23:56.101Z,49.30
2022-08-03T10:28:54.750Z,48.24
2022-08-03T10:33:53.567Z,47.59
2022-08-03T10:38:53.073Z,48.33
2022-08-03T10:43:57.955Z,48.38
2022-08-03T10:48:53.891Z,48.87
2022-08-03T10:53:54.202Z,46.95
2022-08-03T10:58:57.467Z,44.75
2022-08-03T11:04:17.667Z,44.17
2022-08-03T11:09:19.836Z,42.94
2022-08-03T11:14:19.872Z,42.83
2022-08-03T11:19:15.959Z,41.96
2022-08-03T11:24:09.682Z,41.83
2022-08-03T11:29:32.539Z,40.36
2022-08-03T11:34:26.372Z,40.38
2022-08-03T11:39:20.116Z,39.47
2022-08-03T11:44:43.239Z,39.70
2022-08-03T11:49:41.887Z,39.38
2022-08-03T11:54:35.399Z,39.80
2022-08-03T11:59:34.346Z,38.25
2022-08-03T12:04:29.090Z,39.03
2022-08-03T12:09:23.227Z,39.53
2022-08-03T12:14:50.466Z,38.36
2022-08-03T12:19:45.557Z,37.86
2022-08-03T12:24:43.437Z,34.31
2022-08-03T12:29:37.498Z,34.40
2022-08-03T12:34:50.502Z,34.48
2022-08-03T12:40:03.528Z,34.41
2022-08-03T12:44:57.284Z,33.04
2022-08-03T12:49:53.828Z,27.46
2022-08-03T12:54:56.945Z,27.51
2022-08-03T12:59:53.047Z,29.01
2022-08-03T13:04:49.209Z,29.72
2022-08-03T13:09:46.118Z,30.96
2022-08-03T13:14:39.688Z,32.93
2022-08-03T13:19:33.453Z,32.47
2022-08-03T13:24:26.903Z,33.88
2022-08-03T13:29:21.597Z,33.64
2022-08-03T13:34:14.863Z,33.70
2022-08-03T13:39:09.095Z,34.40
2022-08-03T13:44:26.586Z,36.43
2022-08-03T13:49:17.326Z,34.88
2022-08-03T13:54:10.797Z,33.35
2022-08-03T13:59:04.204Z,33.27
2022-08-03T14:03:58.364Z,33.81
2022-08-03T14:08:54.484Z,33.94
2022-08-03T14:13:50.119Z,32.36
2022-08-03T14:18:43.422Z,36.36
2022-08-03T14:23:38.699Z,35.77
2022-08-03T14:28:33.510Z,35.42
2022-08-03T14:33:28.415Z,36.30
2022-08-03T14:38:23.249Z,34.06
2022-08-03T14:43:17.920Z,37.08
2022-08-03T14:50:28.476Z,36.90
2022-08-03T14:53:26.663Z,37.22
2022-08-03T14:58:21.069Z,37.45
2022-08-03T15:03:16.914Z,38.97
2022-08-03T15:08:10.497Z,38.04
2022-08-03T15:13:03.869Z,36.55
2022-08-03T15:17:57.265Z,37.39
2022-08-03T15:22:55.169Z,35.03
2022-08-03T15:28:03.353Z,35.67
2022-08-03T15:32:57.791Z,34.46
2022-08-03T15:37:51.059Z,35.29
2022-08-03T15:42:45.882Z,34.71
2022-08-03T15:47:39.269Z,36.88
2022-08-03T15:52:32.620Z,37.98
2022-08-03T15:57:26.088Z,37.80
2022-08-03T16:02:21.113Z,38.50
2022-08-03T16:07:15.871Z,37.55
2022-08-03T16:12:16.020Z,39.74
2022-08-03T16:17:09.823Z,38.33
2022-08-03T16:22:04.529Z,40.70
2022-08-03T16:26:58.115Z,40.07
2022-08-03T16:31:53.993Z,41.43
2022-08-03T16:36:47.752Z,41.53
2022-08-03T16:41:54.525Z,42.65
2022-08-03T16:46:54.099Z,43.07
2022-08-03T16:51:50.087Z,40.35
2022-08-03T16:56:45.377Z,39.01
2022-08-03T17:01:42.456Z,38.38
2022-08-03T17:06:44.638Z,37.59
2022-08-03T17:11:47.098Z,39.37
2022-08-03T17:16:45.128Z,38.20
2022-08-03T17:21:56.549Z,39.14
2022-08-03T17:26:54.837Z,38.30
2022-08-03T17:31:51.436Z,39.03
2022-08-03T17:37:04.237Z,41.00
2022-08-03T17:42:00.840Z,38.20
2022-08-03T17:46:54.592Z,37.82
2022-08-03T17:51:59.339Z,38.95
2022-08-03T17:57:22.018Z,41.14
2022-08-03T18:02:57.139Z,42.48
2022-08-03T18:07:58.377Z,43.77
2022-08-03T18:13:04.039Z,43.62
2022-08-03T18:18:10.981Z,44.24
2022-08-03T18:23:05.672Z,44.12
2022-08-03T18:28:01.450Z,42.83
2022-08-03T18:33:00.821Z,44.82
2022-08-03T18:37:56.429Z,45.49
2022-08-03T18:42:54.807Z,46.25
2022-08-03T18:48:05.018Z,47.79
2022-08-03T18:58:39.465Z,50.45
2022-08-03T19:03:42.754Z,51.92
2022-08-03T19:08:50.278Z,53.25
2022-08-03T19:13:50.741Z,53.96
2022-08-03T19:18:51.155Z,54.27
2022-08-03T19:23:48.407Z,56.05
2022-08-03T19:28:42.596Z,58.47
2022-08-03T19:33:56.104Z,59.80
2022-08-03T19:38:55.416Z,59.09
2022-08-03T19:43:57.934Z,57.36
2022-08-03T19:49:00.653Z,57.53
2022-08-03T19:53:55.703Z,59.72
2022-08-03T19:58:53.224Z,62.09
2022-08-03T20:03:48.499Z,64.14
2022-08-03T20:08:44.103Z,65.44
2022-08-03T20:13:39.669Z,67.18
2022-08-03T20:18:39.144Z,67.21
2022-08-03T20:23:39.092Z,69.72
2022-08-03T20:29:09.066Z,70.75
2022-08-03T20:34:02.887Z,72.50
2022-08-03T20:38:58.011Z,72.96
2022-08-03T20:43:53.103Z,72.82
2022-08-03T20:48:48.690Z,70.80
2022-08-03T20:53:59.719Z,68.77
2022-08-03T20:58:57.822Z,67.35
2022-08-03T21:03:55.561Z,67.22
2022-08-03T21:08:55.859Z,67.04
2022-08-03T21:13:11.058Z,49.23
2022-08-03T21:14:00.026Z,65.34
2022-08-03T21:18:58.331Z,62.69
2022-08-03T21:23:54.215Z,61.31
2022-08-03T21:28:48.977Z,60.19
2022-08-03T21:33:47.040Z,59.95
2022-08-03T21:38:43.827Z,59.26
2022-08-03T21:43:40.911Z,60.92
2022-08-03T21:48:40.117Z,59.81
2022-08-03T21:54:03.900Z,59.30
2022-08-03T21:58:54.953Z,59.81
2022-08-03T22:03:53.071Z,59.48
2022-08-03T22:08:50.516Z,60.03
2022-08-03T22:13:44.727Z,60.56
2022-08-03T22:18:39.223Z,60.33
2022-08-03T22:23:38.212Z,61.13
2022-08-03T22:28:34.073Z,61.91
2022-08-03T22:33:29.109Z,63.47
2022-08-03T22:38:23.086Z,64.03
2022-08-03T22:43:16.716Z,62.27
2022-08-03T22:48:14.651Z,61.20
2022-08-03T22:53:08.976Z,61.61
2022-08-03T22:58:02.291Z,62.00
2022-08-03T23:03:09.062Z,61.88
2022-08-03T23:08:13.755Z,63.26
2022-08-03T23:13:14.892Z,63.78
2022-08-03T23:18:13.614Z,63.87
2022-08-03T23:23:19.956Z,65.33
2022-08-03T23:28:17.689Z,64.97
2022-08-03T23:33:13.863Z,65.82
2022-08-03T23:38:21.861Z,67.26
2022-08-03T23:43:44.692Z,68.05
2022-08-03T23:48:31.223Z,67.54
2022-08-03T23:53:33.311Z,68.90
2022-08-03T23:58:51.716Z,68.55
